sensor_id;sensor_type;location;lat;lon;timestamp;P1;durP1;ratioP1;P2;durP2;ratioP2
66485;SDS011;53303;47.476;8.084;2022-07-29T00:00:14;4.78;;;2.53;;
66485;SDS011;53303;47.476;8.084;2022-07-29T00:02:42;5.47;;;2.63;;
66485;SDS011;53303;47.476;8.084;2022-07-29T00:05:08;7.65;;;2.33;;
66485;SDS011;53303;47.476;8.084;2022-07-29T00:07:34;6.13;;;2.55;;
66485;SDS011;53303;47.476;8.084;2022-07-29T00:10:02;4.53;;;2.45;;
66485;SDS011;53303;47.476;8.084;2022-07-29T00:12:28;5.60;;;2.42;;
66485;SDS011;53303;47.476;8.084;2022-07-29T00:14:54;4.95;;;2.42;;
66485;SDS011;53303;47.476;8.084;2022-07-29T00:17:20;5.10;;;2.30;;
66485;SDS011;53303;47.476;8.084;2022-07-29T00:19:47;4.43;;;1.98;;
66485;SDS011;53303;47.476;8.084;2022-07-29T00:22:13;5.25;;;2.30;;
66485;SDS011;53303;47.476;8.084;2022-07-29T00:24:38;6.22;;;2.40;;
66485;SDS011;53303;47.476;8.084;2022-07-29T00:27:04;4.35;;;2.15;;
66485;SDS011;53303;47.476;8.084;2022-07-29T00:29:29;5.30;;;2.30;;
66485;SDS011;53303;47.476;8.084;2022-07-29T00:31:55;4.03;;;2.28;;
66485;SDS011;53303;47.476;8.084;2022-07-29T00:34:20;4.90;;;2.60;;
66485;SDS011;53303;47.476;8.084;2022-07-29T00:37:04;5.00;;;2.40;;
66485;SDS011;53303;47.476;8.084;2022-07-29T00:39:32;7.05;;;2.30;;
66485;SDS011;53303;47.476;8.084;2022-07-29T00:41:58;5.80;;;2.35;;
66485;SDS011;53303;47.476;8.084;2022-07-29T00:44:23;4.95;;;2.53;;
66485;SDS011;53303;47.476;8.084;2022-07-29T00:46:49;5.68;;;2.30;;
66485;SDS011;53303;47.476;8.084;2022-07-29T00:49:14;6.47;;;2.30;;
66485;SDS011;53303;47.476;8.084;2022-07-29T00:51:39;5.32;;;2.47;;
66485;SDS011;53303;47.476;8.084;2022-07-29T00:54:08;6.68;;;2.40;;
66485;SDS011;53303;47.476;8.084;2022-07-29T00:56:33;5.72;;;2.80;;
66485;SDS011;53303;47.476;8.084;2022-07-29T00:59:01;5.53;;;2.28;;
66485;SDS011;53303;47.476;8.084;2022-07-29T01:01:26;3.42;;;1.95;;
66485;SDS011;53303;47.476;8.084;2022-07-29T01:03:53;5.55;;;2.47;;
66485;SDS011;53303;47.476;8.084;2022-07-29T01:06:19;4.43;;;2.33;;
66485;SDS011;53303;47.476;8.084;2022-07-29T01:08:45;5.20;;;2.15;;
66485;SDS011;53303;47.476;8.084;2022-07-29T01:11:12;4.65;;;2.45;;
66485;SDS011;53303;47.476;8.084;2022-07-29T01:13:39;4.82;;;2.40;;
66485;SDS011;53303;47.476;8.084;2022-07-29T01:16:13;4.57;;;2.28;;
66485;SDS011;53303;47.476;8.084;2022-07-29T01:18:47;4.43;;;2.40;;
66485;SDS011;53303;47.476;8.084;2022-07-29T01:26:37;7.65;;;2.65;;
66485;SDS011;53303;47.476;8.084;2022-07-29T01:32:10;4.43;;;2.38;;
66485;SDS011;53303;47.476;8.084;2022-07-29T01:34:56;5.72;;;2.30;;
66485;SDS011;53303;47.476;8.084;2022-07-29T01:37:26;5.43;;;2.58;;
66485;SDS011;53303;47.476;8.084;2022-07-29T01:39:56;8.63;;;2.70;;
66485;SDS011;53303;47.476;8.084;2022-07-29T01:42:30;7.00;;;2.35;;
66485;SDS011;53303;47.476;8.084;2022-07-29T01:45:10;4.22;;;2.30;;
66485;SDS011;53303;47.476;8.084;2022-07-29T01:47:44;4.65;;;2.40;;
66485;SDS011;53303;47.476;8.084;2022-07-29T01:50:19;5.80;;;2.42;;
66485;SDS011;53303;47.476;8.084;2022-07-29T01:55:24;4.53;;;2.35;;
66485;SDS011;53303;47.476;8.084;2022-07-29T01:57:54;5.18;;;2.40;;
66485;SDS011;53303;47.476;8.084;2022-07-29T02:00:22;5.35;;;2.50;;
66485;SDS011;53303;47.476;8.084;2022-07-29T02:02:50;5.25;;;2.50;;
66485;SDS011;53303;47.476;8.084;2022-07-29T02:05:21;4.07;;;2.25;;
66485;SDS011;53303;47.476;8.084;2022-07-29T02:07:48;4.13;;;2.15;;
66485;SDS011;53303;47.476;8.084;2022-07-29T02:10:16;8.02;;;2.90;;
66485;SDS011;53303;47.476;8.084;2022-07-29T02:12:45;5.20;;;2.55;;
66485;SDS011;53303;47.476;8.084;2022-07-29T02:15:11;4.72;;;2.33;;
66485;SDS011;53303;47.476;8.084;2022-07-29T02:17:43;4.95;;;2.28;;
66485;SDS011;53303;47.476;8.084;2022-07-29T02:20:13;5.47;;;2.67;;
66485;SDS011;53303;47.476;8.084;2022-07-29T02:22:40;4.78;;;2.35;;
66485;SDS011;53303;47.476;8.084;2022-07-29T02:25:08;4.25;;;2.47;;
66485;SDS011;53303;47.476;8.084;2022-07-29T02:27:36;5.20;;;2.25;;
66485;SDS011;53303;47.476;8.084;2022-07-29T02:30:02;5.70;;;3.00;;
66485;SDS011;53303;47.476;8.084;2022-07-29T02:32:29;5.35;;;2.55;;
66485;SDS011;53303;47.476;8.084;2022-07-29T02:34:56;5.28;;;2.70;;
66485;SDS011;53303;47.476;8.084;2022-07-29T02:37:26;5.10;;;2.80;;
66485;SDS011;53303;47.476;8.084;2022-07-29T02:39:53;8.40;;;2.80;;
66485;SDS011;53303;47.476;8.084;2022-07-29T02:42:20;8.70;;;3.10;;
66485;SDS011;53303;47.476;8.084;2022-07-29T02:44:47;7.00;;;2.83;;
66485;SDS011;53303;47.476;8.084;2022-07-29T02:47:16;6.45;;;2.90;;
66485;SDS011;53303;47.476;8.084;2022-07-29T02:50:06;5.28;;;2.83;;
66485;SDS011;53303;47.476;8.084;2022-07-29T02:52:53;5.20;;;2.75;;
66485;SDS011;53303;47.476;8.084;2022-07-29T03:00:53;5.47;;;2.78;;
66485;SDS011;53303;47.476;8.084;2022-07-29T03:03:21;6.95;;;2.88;;
66485;SDS011;53303;47.476;8.084;2022-07-29T03:05:52;5.78;;;2.58;;
66485;SDS011;53303;47.476;8.084;2022-07-29T03:08:20;6.00;;;2.70;;
66485;SDS011;53303;47.476;8.084;2022-07-29T03:10:47;5.35;;;2.63;;
66485;SDS011;53303;47.476;8.084;2022-07-29T03:13:16;4.43;;;2.20;;
66485;SDS011;53303;47.476;8.084;2022-07-29T03:15:42;6.18;;;2.95;;
66485;SDS011;53303;47.476;8.084;2022-07-29T03:18:09;4.82;;;2.72;;
66485;SDS011;53303;47.476;8.084;2022-07-29T03:20:36;5.85;;;2.50;;
66485;SDS011;53303;47.476;8.084;2022-07-29T03:23:02;4.80;;;2.85;;
66485;SDS011;53303;47.476;8.084;2022-07-29T03:25:30;4.93;;;2.63;;
66485;SDS011;53303;47.476;8.084;2022-07-29T03:27:56;5.40;;;2.50;;
66485;SDS011;53303;47.476;8.084;2022-07-29T03:30:22;6.25;;;2.88;;
66485;SDS011;53303;47.476;8.084;2022-07-29T03:32:48;6.80;;;2.70;;
66485;SDS011;53303;47.476;8.084;2022-07-29T03:35:14;7.00;;;2.80;;
66485;SDS011;53303;47.476;8.084;2022-07-29T03:37:43;5.03;;;2.97;;
66485;SDS011;53303;47.476;8.084;2022-07-29T03:40:09;5.40;;;2.72;;
66485;SDS011;53303;47.476;8.084;2022-07-29T03:42:39;5.28;;;2.65;;
66485;SDS011;53303;47.476;8.084;2022-07-29T03:45:07;4.88;;;2.70;;
66485;SDS011;53303;47.476;8.084;2022-07-29T03:47:38;5.53;;;2.83;;
66485;SDS011;53303;47.476;8.084;2022-07-29T03:50:10;6.68;;;2.85;;
66485;SDS011;53303;47.476;8.084;2022-07-29T03:52:38;6.35;;;2.65;;
66485;SDS011;53303;47.476;8.084;2022-07-29T03:55:04;3.80;;;2.30;;
66485;SDS011;53303;47.476;8.084;2022-07-29T03:57:30;5.90;;;2.55;;
66485;SDS011;53303;47.476;8.084;2022-07-29T03:59:57;6.70;;;2.88;;
66485;SDS011;53303;47.476;8.084;2022-07-29T04:02:28;5.00;;;2.58;;
66485;SDS011;53303;47.476;8.084;2022-07-29T04:04:54;4.82;;;2.80;;
66485;SDS011;53303;47.476;8.084;2022-07-29T04:07:21;5.93;;;3.20;;
66485;SDS011;53303;47.476;8.084;2022-07-29T04:09:47;8.73;;;3.10;;
66485;SDS011;53303;47.476;8.084;2022-07-29T04:12:12;8.13;;;3.30;;
66485;SDS011;53303;47.476;8.084;2022-07-29T04:14:38;7.72;;;3.13;;
66485;SDS011;53303;47.476;8.084;2022-07-29T04:17:04;8.15;;;2.75;;
66485;SDS011;53303;47.476;8.084;2022-07-29T04:19:32;5.18;;;3.00;;
66485;SDS011;53303;47.476;8.084;2022-07-29T04:21:58;7.50;;;3.05;;
66485;SDS011;53303;47.476;8.084;2022-07-29T04:24:24;8.63;;;3.20;;
66485;SDS011;53303;47.476;8.084;2022-07-29T04:26:50;5.68;;;2.97;;
66485;SDS011;53303;47.476;8.084;2022-07-29T04:29:16;7.28;;;3.28;;
66485;SDS011;53303;47.476;8.084;2022-07-29T04:31:42;4.78;;;2.75;;
66485;SDS011;53303;47.476;8.084;2022-07-29T04:34:08;5.85;;;2.92;;
66485;SDS011;53303;47.476;8.084;2022-07-29T04:36:36;5.20;;;3.00;;
66485;SDS011;53303;47.476;8.084;2022-07-29T04:39:04;5.55;;;2.70;;
66485;SDS011;53303;47.476;8.084;2022-07-29T04:41:32;5.18;;;2.72;;
66485;SDS011;53303;47.476;8.084;2022-07-29T04:43:57;5.53;;;3.03;;
66485;SDS011;53303;47.476;8.084;2022-07-29T04:46:25;7.50;;;2.88;;
66485;SDS011;53303;47.476;8.084;2022-07-29T04:48:50;5.43;;;2.75;;
66485;SDS011;53303;47.476;8.084;2022-07-29T04:51:16;8.18;;;3.13;;
66485;SDS011;53303;47.476;8.084;2022-07-29T04:53:42;5.00;;;2.80;;
66485;SDS011;53303;47.476;8.084;2022-07-29T04:56:07;6.65;;;2.83;;
66485;SDS011;53303;47.476;8.084;2022-07-29T04:58:36;6.63;;;3.45;;
66485;SDS011;53303;47.476;8.084;2022-07-29T05:01:02;6.00;;;3.22;;
66485;SDS011;53303;47.476;8.084;2022-07-29T05:03:28;5.40;;;2.72;;
66485;SDS011;53303;47.476;8.084;2022-07-29T05:05:53;7.10;;;3.00;;
66485;SDS011;53303;47.476;8.084;2022-07-29T05:08:19;10.32;;;3.15;;
66485;SDS011;53303;47.476;8.084;2022-07-29T05:10:44;6.30;;;2.80;;
66485;SDS011;53303;47.476;8.084;2022-07-29T05:13:10;5.05;;;2.63;;
66485;SDS011;53303;47.476;8.084;2022-07-29T05:15:36;7.50;;;3.15;;
66485;SDS011;53303;47.476;8.084;2022-07-29T05:18:02;6.10;;;3.53;;
66485;SDS011;53303;47.476;8.084;2022-07-29T05:20:28;6.57;;;3.30;;
66485;SDS011;53303;47.476;8.084;2022-07-29T05:22:56;7.15;;;3.22;;
66485;SDS011;53303;47.476;8.084;2022-07-29T05:25:23;8.52;;;3.53;;
66485;SDS011;53303;47.476;8.084;2022-07-29T05:27:49;7.03;;;3.60;;
66485;SDS011;53303;47.476;8.084;2022-07-29T05:30:15;5.35;;;3.00;;
66485;SDS011;53303;47.476;8.084;2022-07-29T05:32:41;6.95;;;3.42;;
66485;SDS011;53303;47.476;8.084;2022-07-29T05:35:06;6.75;;;3.63;;
66485;SDS011;53303;47.476;8.084;2022-07-29T05:37:32;6.57;;;3.60;;
66485;SDS011;53303;47.476;8.084;2022-07-29T05:39:58;7.13;;;3.53;;
66485;SDS011;53303;47.476;8.084;2022-07-29T05:42:24;6.03;;;3.50;;
66485;SDS011;53303;47.476;8.084;2022-07-29T05:44:50;6.28;;;3.28;;
66485;SDS011;53303;47.476;8.084;2022-07-29T05:47:16;5.65;;;3.30;;
66485;SDS011;53303;47.476;8.084;2022-07-29T05:49:41;6.68;;;3.63;;
66485;SDS011;53303;47.476;8.084;2022-07-29T05:52:09;9.88;;;3.67;;
66485;SDS011;53303;47.476;8.084;2022-07-29T05:54:35;7.75;;;3.50;;
66485;SDS011;53303;47.476;8.084;2022-07-29T05:57:01;6.65;;;3.63;;
66485;SDS011;53303;47.476;8.084;2022-07-29T05:59:26;9.27;;;3.70;;
66485;SDS011;53303;47.476;8.084;2022-07-29T06:01:52;6.45;;;3.50;;
66485;SDS011;53303;47.476;8.084;2022-07-29T06:04:17;7.88;;;3.63;;
66485;SDS011;53303;47.476;8.084;2022-07-29T06:06:45;8.60;;;3.80;;
66485;SDS011;53303;47.476;8.084;2022-07-29T06:09:10;16.13;;;4.35;;
66485;SDS011;53303;47.476;8.084;2022-07-29T06:11:36;9.32;;;3.92;;
66485;SDS011;53303;47.476;8.084;2022-07-29T06:14:04;16.67;;;5.07;;
66485;SDS011;53303;47.476;8.084;2022-07-29T06:16:30;22.02;;;4.78;;
66485;SDS011;53303;47.476;8.084;2022-07-29T06:18:55;12.07;;;4.00;;
66485;SDS011;53303;47.476;8.084;2022-07-29T06:21:21;14.55;;;4.68;;
66485;SDS011;53303;47.476;8.084;2022-07-29T06:23:46;12.57;;;4.25;;
66485;SDS011;53303;47.476;8.084;2022-07-29T06:26:11;8.88;;;3.65;;
66485;SDS011;53303;47.476;8.084;2022-07-29T06:28:37;7.95;;;3.85;;
66485;SDS011;53303;47.476;8.084;2022-07-29T06:31:02;10.00;;;4.13;;
66485;SDS011;53303;47.476;8.084;2022-07-29T06:33:28;13.73;;;4.13;;
66485;SDS011;53303;47.476;8.084;2022-07-29T06:35:55;9.57;;;3.90;;
66485;SDS011;53303;47.476;8.084;2022-07-29T06:38:25;10.07;;;4.18;;
66485;SDS011;53303;47.476;8.084;2022-07-29T06:40:53;13.32;;;4.45;;
66485;SDS011;53303;47.476;8.084;2022-07-29T06:43:40;9.85;;;3.72;;
66485;SDS011;53303;47.476;8.084;2022-07-29T06:46:10;13.00;;;3.72;;
66485;SDS011;53303;47.476;8.084;2022-07-29T06:48:37;8.70;;;3.58;;
66485;SDS011;53303;47.476;8.084;2022-07-29T06:51:03;10.27;;;3.95;;
66485;SDS011;53303;47.476;8.084;2022-07-29T06:53:32;10.82;;;3.85;;
66485;SDS011;53303;47.476;8.084;2022-07-29T06:55:58;12.63;;;4.03;;
66485;SDS011;53303;47.476;8.084;2022-07-29T06:58:28;8.93;;;3.40;;
66485;SDS011;53303;47.476;8.084;2022-07-29T07:00:54;7.38;;;3.47;;
66485;SDS011;53303;47.476;8.084;2022-07-29T07:03:20;11.07;;;3.90;;
66485;SDS011;53303;47.476;8.084;2022-07-29T07:05:47;6.63;;;3.40;;
66485;SDS011;53303;47.476;8.084;2022-07-29T07:08:16;8.70;;;3.53;;
66485;SDS011;53303;47.476;8.084;2022-07-29T07:10:44;7.95;;;3.63;;
66485;SDS011;53303;47.476;8.084;2022-07-29T07:13:10;8.82;;;3.42;;
66485;SDS011;53303;47.476;8.084;2022-07-29T07:15:36;8.07;;;3.20;;
66485;SDS011;53303;47.476;8.084;2022-07-29T07:18:02;8.35;;;3.30;;
66485;SDS011;53303;47.476;8.084;2022-07-29T07:20:28;7.40;;;3.47;;
66485;SDS011;53303;47.476;8.084;2022-07-29T07:22:56;9.20;;;3.35;;
66485;SDS011;53303;47.476;8.084;2022-07-29T07:25:21;12.80;;;3.50;;
66485;SDS011;53303;47.476;8.084;2022-07-29T07:27:47;8.07;;;3.33;;
66485;SDS011;53303;47.476;8.084;2022-07-29T07:30:12;6.50;;;3.50;;
66485;SDS011;53303;47.476;8.084;2022-07-29T07:32:41;6.40;;;3.30;;
66485;SDS011;53303;47.476;8.084;2022-07-29T07:35:07;5.55;;;2.67;;
66485;SDS011;53303;47.476;8.084;2022-07-29T07:37:34;8.88;;;3.30;;
66485;SDS011;53303;47.476;8.084;2022-07-29T07:39:59;6.43;;;3.10;;
66485;SDS011;53303;47.476;8.084;2022-07-29T07:42:25;6.97;;;2.88;;
66485;SDS011;53303;47.476;8.084;2022-07-29T07:44:51;5.32;;;2.63;;
66485;SDS011;53303;47.476;8.084;2022-07-29T07:47:19;5.53;;;2.90;;
66485;SDS011;53303;47.476;8.084;2022-07-29T07:49:47;5.00;;;2.65;;
66485;SDS011;53303;47.476;8.084;2022-07-29T07:52:15;8.38;;;2.83;;
66485;SDS011;53303;47.476;8.084;2022-07-29T07:54:42;4.55;;;2.55;;
66485;SDS011;53303;47.476;8.084;2022-07-29T07:57:10;5.93;;;2.92;;
66485;SDS011;53303;47.476;8.084;2022-07-29T07:59:39;5.43;;;2.97;;
66485;SDS011;53303;47.476;8.084;2022-07-29T08:02:05;4.72;;;2.22;;
66485;SDS011;53303;47.476;8.084;2022-07-29T08:04:31;5.85;;;3.03;;
66485;SDS011;53303;47.476;8.084;2022-07-29T08:06:57;5.80;;;2.80;;
66485;SDS011;53303;47.476;8.084;2022-07-29T08:09:24;5.82;;;2.92;;
66485;SDS011;53303;47.476;8.084;2022-07-29T08:11:52;5.55;;;3.08;;
66485;SDS011;53303;47.476;8.084;2022-07-29T08:14:19;5.15;;;2.90;;
66485;SDS011;53303;47.476;8.084;2022-07-29T08:16:47;5.32;;;3.08;;
66485;SDS011;53303;47.476;8.084;2022-07-29T08:19:12;7.97;;;2.50;;
66485;SDS011;53303;47.476;8.084;2022-07-29T08:21:38;5.03;;;2.42;;
66485;SDS011;53303;47.476;8.084;2022-07-29T08:24:04;4.93;;;2.72;;
66485;SDS011;53303;47.476;8.084;2022-07-29T08:26:49;4.82;;;2.80;;
66485;SDS011;53303;47.476;8.084;2022-07-29T08:29:19;4.57;;;2.53;;
66485;SDS011;53303;47.476;8.084;2022-07-29T08:31:46;5.10;;;2.78;;
66485;SDS011;53303;47.476;8.084;2022-07-29T08:34:12;5.82;;;2.80;;
66485;SDS011;53303;47.476;8.084;2022-07-29T08:36:38;5.22;;;2.72;;
66485;SDS011;53303;47.476;8.084;2022-07-29T08:39:03;5.93;;;2.85;;
66485;SDS011;53303;47.476;8.084;2022-07-29T08:41:29;5.32;;;2.63;;
66485;SDS011;53303;47.476;8.084;2022-07-29T08:43:54;5.80;;;3.03;;
66485;SDS011;53303;47.476;8.084;2022-07-29T08:46:22;5.63;;;3.08;;
66485;SDS011;53303;47.476;8.084;2022-07-29T08:48:50;5.50;;;2.65;;
66485;SDS011;53303;47.476;8.084;2022-07-29T08:51:18;4.75;;;2.40;;
66485;SDS011;53303;47.476;8.084;2022-07-29T08:53:48;4.82;;;2.17;;
66485;SDS011;53303;47.476;8.084;2022-07-29T08:56:18;4.30;;;2.45;;
66485;SDS011;53303;47.476;8.084;2022-07-29T08:58:45;4.65;;;2.63;;
66485;SDS011;53303;47.476;8.084;2022-07-29T09:01:14;5.78;;;3.03;;
66485;SDS011;53303;47.476;8.084;2022-07-29T09:03:44;4.13;;;2.45;;
66485;SDS011;53303;47.476;8.084;2022-07-29T09:06:17;4.82;;;2.20;;
66485;SDS011;53303;47.476;8.084;2022-07-29T09:08:43;5.32;;;2.58;;
66485;SDS011;53303;47.476;8.084;2022-07-29T09:11:13;6.22;;;2.60;;
66485;SDS011;53303;47.476;8.084;2022-07-29T09:13:41;5.45;;;2.67;;
66485;SDS011;53303;47.476;8.084;2022-07-29T09:16:06;4.93;;;2.50;;
66485;SDS011;53303;47.476;8.084;2022-07-29T09:18:42;6.03;;;3.10;;
66485;SDS011;53303;47.476;8.084;2022-07-29T09:21:10;5.20;;;2.55;;
66485;SDS011;53303;47.476;8.084;2022-07-29T09:24:06;5.20;;;2.75;;
66485;SDS011;53303;47.476;8.084;2022-07-29T09:26:37;5.50;;;2.90;;
66485;SDS011;53303;47.476;8.084;2022-07-29T09:29:23;4.68;;;2.55;;
66485;SDS011;53303;47.476;8.084;2022-07-29T09:31:50;5.03;;;2.60;;
66485;SDS011;53303;47.476;8.084;2022-07-29T09:34:21;4.78;;;2.42;;
66485;SDS011;53303;47.476;8.084;2022-07-29T09:36:53;4.40;;;2.28;;
66485;SDS011;53303;47.476;8.084;2022-07-29T09:39:27;4.70;;;2.03;;
66485;SDS011;53303;47.476;8.084;2022-07-29T09:42:00;6.03;;;2.17;;
66485;SDS011;53303;47.476;8.084;2022-07-29T09:44:40;4.85;;;2.25;;
66485;SDS011;53303;47.476;8.084;2022-07-29T09:47:15;5.30;;;2.30;;
66485;SDS011;53303;47.476;8.084;2022-07-29T09:52:15;4.50;;;2.33;;
66485;SDS011;53303;47.476;8.084;2022-07-29T09:54:40;4.57;;;2.10;;
66485;SDS011;53303;47.476;8.084;2022-07-29T09:57:09;5.05;;;2.42;;
66485;SDS011;53303;47.476;8.084;2022-07-29T10:02:32;5.53;;;2.45;;
66485;SDS011;53303;47.476;8.084;2022-07-29T10:05:00;4.57;;;2.10;;
66485;SDS011;53303;47.476;8.084;2022-07-29T10:07:29;5.15;;;2.22;;
66485;SDS011;53303;47.476;8.084;2022-07-29T10:10:27;4.70;;;2.45;;
66485;SDS011;53303;47.476;8.084;2022-07-29T10:13:02;4.18;;;2.30;;
66485;SDS011;53303;47.476;8.084;2022-07-29T10:15:35;3.28;;;1.95;;
66485;SDS011;53303;47.476;8.084;2022-07-29T10:18:06;5.45;;;2.13;;
66485;SDS011;53303;47.476;8.084;2022-07-29T10:27:19;5.45;;;2.20;;
66485;SDS011;53303;47.476;8.084;2022-07-29T10:36:57;4.88;;;2.20;;
66485;SDS011;53303;47.476;8.084;2022-07-29T10:43:24;5.72;;;2.20;;
66485;SDS011;53303;47.476;8.084;2022-07-29T10:46:33;4.70;;;2.53;;
66485;SDS011;53303;47.476;8.084;2022-07-29T10:53:51;5.60;;;2.25;;
66485;SDS011;53303;47.476;8.084;2022-07-29T11:02:59;4.38;;;2.25;;
66485;SDS011;53303;47.476;8.084;2022-07-29T11:05:30;4.88;;;2.30;;
66485;SDS011;53303;47.476;8.084;2022-07-29T11:11:59;5.25;;;2.50;;
66485;SDS011;53303;47.476;8.084;2022-07-29T11:19:47;5.75;;;2.33;;
66485;SDS011;53303;47.476;8.084;2022-07-29T11:22:30;5.00;;;2.33;;
66485;SDS011;53303;47.476;8.084;2022-07-29T11:25:17;7.38;;;2.58;;
66485;SDS011;53303;47.476;8.084;2022-07-29T11:27:53;3.42;;;2.08;;
66485;SDS011;53303;47.476;8.084;2022-07-29T11:30:51;5.18;;;2.30;;
66485;SDS011;53303;47.476;8.084;2022-07-29T11:33:31;5.45;;;2.28;;
66485;SDS011;53303;47.476;8.084;2022-07-29T11:36:10;5.47;;;2.25;;
66485;SDS011;53303;47.476;8.084;2022-07-29T11:41:41;6.10;;;2.22;;
66485;SDS011;53303;47.476;8.084;2022-07-29T11:44:15;4.90;;;2.40;;
66485;SDS011;53303;47.476;8.084;2022-07-29T11:46:50;5.18;;;2.40;;
66485;SDS011;53303;47.476;8.084;2022-07-29T11:49:23;5.07;;;2.15;;
66485;SDS011;53303;47.476;8.084;2022-07-29T11:51:51;3.65;;;2.10;;
66485;SDS011;53303;47.476;8.084;2022-07-29T11:54:24;4.85;;;2.60;;
66485;SDS011;53303;47.476;8.084;2022-07-29T11:57:06;4.13;;;2.25;;
66485;SDS011;53303;47.476;8.084;2022-07-29T11:59:32;4.50;;;2.30;;
66485;SDS011;53303;47.476;8.084;2022-07-29T12:02:13;5.85;;;2.45;;
66485;SDS011;53303;47.476;8.084;2022-07-29T12:04:53;4.72;;;2.03;;
66485;SDS011;53303;47.476;8.084;2022-07-29T12:07:31;5.15;;;2.00;;
66485;SDS011;53303;47.476;8.084;2022-07-29T12:10:04;3.85;;;1.88;;
66485;SDS011;53303;47.476;8.084;2022-07-29T12:12:38;4.85;;;1.83;;
66485;SDS011;53303;47.476;8.084;2022-07-29T12:15:11;6.13;;;2.08;;
66485;SDS011;53303;47.476;8.084;2022-07-29T12:17:42;5.15;;;2.42;;
66485;SDS011;53303;47.476;8.084;2022-07-29T12:20:11;4.05;;;2.05;;
66485;SDS011;53303;47.476;8.084;2022-07-29T12:22:44;4.25;;;1.90;;
66485;SDS011;53303;47.476;8.084;2022-07-29T12:25:14;4.88;;;2.10;;
66485;SDS011;53303;47.476;8.084;2022-07-29T12:27:43;3.72;;;1.90;;
66485;SDS011;53303;47.476;8.084;2022-07-29T12:30:22;3.92;;;1.92;;
66485;SDS011;53303;47.476;8.084;2022-07-29T12:32:53;3.03;;;1.60;;
66485;SDS011;53303;47.476;8.084;2022-07-29T12:35:19;5.15;;;2.20;;
66485;SDS011;53303;47.476;8.084;2022-07-29T12:37:46;2.97;;;1.80;;
66485;SDS011;53303;47.476;8.084;2022-07-29T12:40:14;3.45;;;1.90;;
66485;SDS011;53303;47.476;8.084;2022-07-29T12:45:32;6.55;;;2.30;;
66485;SDS011;53303;47.476;8.084;2022-07-29T12:47:58;3.42;;;1.98;;
66485;SDS011;53303;47.476;8.084;2022-07-29T12:50:24;5.80;;;2.30;;
66485;SDS011;53303;47.476;8.084;2022-07-29T12:53:07;3.55;;;1.90;;
66485;SDS011;53303;47.476;8.084;2022-07-29T12:55:44;5.15;;;2.30;;
66485;SDS011;53303;47.476;8.084;2022-07-29T12:58:35;3.65;;;1.80;;
66485;SDS011;53303;47.476;8.084;2022-07-29T13:06:30;3.30;;;1.80;;
66485;SDS011;53303;47.476;8.084;2022-07-29T13:08:59;4.10;;;1.95;;
66485;SDS011;53303;47.476;8.084;2022-07-29T13:11:32;4.05;;;2.08;;
66485;SDS011;53303;47.476;8.084;2022-07-29T13:14:33;4.55;;;2.10;;
66485;SDS011;53303;47.476;8.084;2022-07-29T13:19:40;3.60;;;1.88;;
66485;SDS011;53303;47.476;8.084;2022-07-29T13:22:08;3.33;;;1.83;;
66485;SDS011;53303;47.476;8.084;2022-07-29T13:24:55;5.63;;;2.13;;
66485;SDS011;53303;47.476;8.084;2022-07-29T13:27:24;3.92;;;1.80;;
66485;SDS011;53303;47.476;8.084;2022-07-29T13:29:54;4.13;;;2.03;;
66485;SDS011;53303;47.476;8.084;2022-07-29T13:32:25;5.10;;;2.03;;
66485;SDS011;53303;47.476;8.084;2022-07-29T13:34:57;3.78;;;1.80;;
66485;SDS011;53303;47.476;8.084;2022-07-29T13:37:24;4.20;;;1.85;;
66485;SDS011;53303;47.476;8.084;2022-07-29T13:39:54;3.78;;;1.90;;
66485;SDS011;53303;47.476;8.084;2022-07-29T13:42:21;4.50;;;1.80;;
66485;SDS011;53303;47.476;8.084;2022-07-29T13:44:47;3.08;;;1.73;;
66485;SDS011;53303;47.476;8.084;2022-07-29T13:47:17;3.63;;;1.90;;
66485;SDS011;53303;47.476;8.084;2022-07-29T13:49:53;5.40;;;1.98;;
66485;SDS011;53303;47.476;8.084;2022-07-29T13:52:19;12.65;;;2.60;;
66485;SDS011;53303;47.476;8.084;2022-07-29T13:54:45;17.17;;;3.60;;
66485;SDS011;53303;47.476;8.084;2022-07-29T13:57:10;38.13;;;4.85;;
66485;SDS011;53303;47.476;8.084;2022-07-29T13:59:36;97.55;;;11.23;;
66485;SDS011;53303;47.476;8.084;2022-07-29T14:02:08;172.85;;;16.08;;
66485;SDS011;53303;47.476;8.084;2022-07-29T14:07:08;181.20;;;18.52;;
66485;SDS011;53303;47.476;8.084;2022-07-29T14:09:35;157.98;;;18.13;;
66485;SDS011;53303;47.476;8.084;2022-07-29T14:12:01;177.10;;;18.70;;
66485;SDS011;53303;47.476;8.084;2022-07-29T14:14:27;160.15;;;18.35;;
66485;SDS011;53303;47.476;8.084;2022-07-29T14:16:53;186.70;;;18.85;;
66485;SDS011;53303;47.476;8.084;2022-07-29T14:19:19;153.98;;;18.15;;
66485;SDS011;53303;47.476;8.084;2022-07-29T14:21:44;160.43;;;18.10;;
66485;SDS011;53303;47.476;8.084;2022-07-29T14:24:13;143.18;;;16.90;;
66485;SDS011;53303;47.476;8.084;2022-07-29T14:26:44;141.35;;;15.30;;
66485;SDS011;53303;47.476;8.084;2022-07-29T14:29:12;112.85;;;14.15;;
66485;SDS011;53303;47.476;8.084;2022-07-29T14:31:38;105.05;;;13.75;;
66485;SDS011;53303;47.476;8.084;2022-07-29T14:34:08;71.00;;;9.45;;
66485;SDS011;53303;47.476;8.084;2022-07-29T14:36:33;61.47;;;8.38;;
66485;SDS011;53303;47.476;8.084;2022-07-29T14:38:59;53.17;;;7.63;;
66485;SDS011;53303;47.476;8.084;2022-07-29T14:41:25;47.25;;;7.78;;
66485;SDS011;53303;47.476;8.084;2022-07-29T14:43:53;37.15;;;7.18;;
66485;SDS011;53303;47.476;8.084;2022-07-29T14:46:18;45.45;;;6.75;;
66485;SDS011;53303;47.476;8.084;2022-07-29T14:48:44;31.80;;;5.90;;
66485;SDS011;53303;47.476;8.084;2022-07-29T14:51:09;25.90;;;3.97;;
66485;SDS011;53303;47.476;8.084;2022-07-29T14:53:35;34.28;;;5.28;;
66485;SDS011;53303;47.476;8.084;2022-07-29T14:56:01;23.92;;;5.68;;
66485;SDS011;53303;47.476;8.084;2022-07-29T14:58:26;18.88;;;4.53;;
66485;SDS011;53303;47.476;8.084;2022-07-29T15:00:52;21.80;;;4.90;;
66485;SDS011;53303;47.476;8.084;2022-07-29T15:03:19;12.05;;;4.20;;
66485;SDS011;53303;47.476;8.084;2022-07-29T15:05:48;16.00;;;4.43;;
66485;SDS011;53303;47.476;8.084;2022-07-29T15:08:13;9.43;;;3.83;;
66485;SDS011;53303;47.476;8.084;2022-07-29T15:10:41;15.13;;;4.05;;
66485;SDS011;53303;47.476;8.084;2022-07-29T15:13:07;11.02;;;3.80;;
66485;SDS011;53303;47.476;8.084;2022-07-29T15:15:32;11.13;;;3.72;;
66485;SDS011;53303;47.476;8.084;2022-07-29T15:17:58;12.73;;;4.13;;
66485;SDS011;53303;47.476;8.084;2022-07-29T15:20:23;10.30;;;3.95;;
66485;SDS011;53303;47.476;8.084;2022-07-29T15:22:50;8.82;;;3.40;;
66485;SDS011;53303;47.476;8.084;2022-07-29T15:25:16;7.30;;;3.47;;
66485;SDS011;53303;47.476;8.084;2022-07-29T15:27:41;6.68;;;3.30;;
66485;SDS011;53303;47.476;8.084;2022-07-29T15:30:07;6.75;;;3.40;;
66485;SDS011;53303;47.476;8.084;2022-07-29T15:32:33;6.85;;;3.47;;
66485;SDS011;53303;47.476;8.084;2022-07-29T15:34:58;5.85;;;2.88;;
66485;SDS011;53303;47.476;8.084;2022-07-29T15:37:24;6.90;;;3.00;;
66485;SDS011;53303;47.476;8.084;2022-07-29T15:39:49;7.47;;;3.10;;
66485;SDS011;53303;47.476;8.084;2022-07-29T15:42:15;7.18;;;3.20;;
66485;SDS011;53303;47.476;8.084;2022-07-29T15:44:40;7.07;;;3.03;;
66485;SDS011;53303;47.476;8.084;2022-07-29T15:47:05;6.13;;;2.70;;
66485;SDS011;53303;47.476;8.084;2022-07-29T15:49:35;5.80;;;2.90;;
66485;SDS011;53303;47.476;8.084;2022-07-29T15:52:03;8.10;;;2.72;;
66485;SDS011;53303;47.476;8.084;2022-07-29T15:54:33;4.70;;;2.38;;
66485;SDS011;53303;47.476;8.084;2022-07-29T15:57:00;5.70;;;2.40;;
66485;SDS011;53303;47.476;8.084;2022-07-29T15:59:28;4.40;;;2.33;;
66485;SDS011;53303;47.476;8.084;2022-07-29T16:01:54;5.80;;;2.40;;
66485;SDS011;53303;47.476;8.084;2022-07-29T16:04:22;5.18;;;2.35;;
66485;SDS011;53303;47.476;8.084;2022-07-29T16:06:48;5.40;;;2.83;;
66485;SDS011;53303;47.476;8.084;2022-07-29T16:09:14;6.15;;;2.13;;
66485;SDS011;53303;47.476;8.084;2022-07-29T16:11:40;5.97;;;2.42;;